createdAt,value
2019-01-29T00:01:39.154Z,4.00
2019-01-29T00:04:06.750Z,3.70
2019-01-29T00:06:34.714Z,3.80
2019-01-29T00:09:04.229Z,4.00
2019-01-29T00:11:32.508Z,4.00
2019-01-29T00:14:00.431Z,4.00
2019-01-29T00:16:28.056Z,3.80
2019-01-29T00:18:56.175Z,4.00
2019-01-29T00:21:24.183Z,4.10
2019-01-29T00:23:51.860Z,3.70
2019-01-29T00:26:19.508Z,3.60
2019-01-29T00:28:47.560Z,3.70
2019-01-29T00:31:15.274Z,4.00
2019-01-29T00:33:43.238Z,3.90
2019-01-29T00:36:12.175Z,3.60
2019-01-29T00:38:39.845Z,3.70
2019-01-29T00:41:07.744Z,3.50
2019-01-29T00:43:35.682Z,3.70
2019-01-29T00:46:03.858Z,3.60
2019-01-29T00:48:32.115Z,3.70
2019-01-29T00:50:59.682Z,3.60
2019-01-29T00:53:27.549Z,3.80
2019-01-29T00:55:55.290Z,3.80
2019-01-29T00:58:22.903Z,3.80
2019-01-29T01:00:50.435Z,3.80
2019-01-29T01:03:18.246Z,3.70
2019-01-29T01:05:45.878Z,3.70
2019-01-29T01:08:13.570Z,3.80
2019-01-29T01:10:41.696Z,3.80
2019-01-29T01:13:09.465Z,3.30
2019-01-29T01:15:37.035Z,3.60
2019-01-29T01:18:05.070Z,3.70
2019-01-29T01:20:32.946Z,3.50
2019-01-29T01:23:01.139Z,3.70
2019-01-29T01:25:28.985Z,3.70
2019-01-29T01:27:56.878Z,3.40
2019-01-29T01:30:24.539Z,3.70
2019-01-29T01:32:52.128Z,3.30
2019-01-29T01:35:20.421Z,3.80
2019-01-29T01:37:48.057Z,3.30
2019-01-29T01:40:18.117Z,3.70
2019-01-29T01:42:46.115Z,3.80
2019-01-29T01:45:13.870Z,3.80
2019-01-29T01:47:41.459Z,3.80
2019-01-29T01:50:10.022Z,3.70
2019-01-29T01:52:37.707Z,3.80
2019-01-29T01:55:07.387Z,3.80
2019-01-29T01:57:35.399Z,3.60
2019-01-29T02:00:03.747Z,3.80
2019-01-29T02:02:31.494Z,3.80
2019-01-29T02:04:59.570Z,3.80
2019-01-29T02:07:27.243Z,3.80
2019-01-29T02:09:54.986Z,3.60
2019-01-29T02:12:22.549Z,3.80
2019-01-29T02:14:50.649Z,3.80
2019-01-29T02:17:18.286Z,3.80
2019-01-29T02:19:45.849Z,3.80
2019-01-29T02:22:13.802Z,3.60
2019-01-29T02:24:41.683Z,3.60
2019-01-29T02:27:09.619Z,3.60
2019-01-29T02:29:37.262Z,3.60
2019-01-29T02:32:05.288Z,3.60
2019-01-29T02:34:33.112Z,3.70
2019-01-29T02:37:01.115Z,3.40
2019-01-29T02:39:29.188Z,3.60
2019-01-29T02:41:56.767Z,3.30
2019-01-29T02:44:25.387Z,3.40
2019-01-29T02:46:53.023Z,3.50
2019-01-29T02:49:20.756Z,3.50
2019-01-29T02:51:48.709Z,3.50
2019-01-29T02:54:16.319Z,3.40
2019-01-29T02:56:44.198Z,3.10
2019-01-29T02:59:11.782Z,3.20
2019-01-29T03:01:39.772Z,3.10
2019-01-29T03:04:07.531Z,3.40
2019-01-29T03:06:35.636Z,3.30
2019-01-29T03:09:06.957Z,3.10
2019-01-29T03:11:34.828Z,3.30
2019-01-29T03:14:02.539Z,2.90
2019-01-29T03:16:30.251Z,3.10
2019-01-29T03:18:58.227Z,3.00
2019-01-29T03:21:25.982Z,2.90
2019-01-29T03:23:54.263Z,3.00
2019-01-29T03:26:22.556Z,3.20
2019-01-29T03:28:50.471Z,3.00
2019-01-29T03:31:18.355Z,3.00
2019-01-29T03:33:46.119Z,2.80
2019-01-29T03:36:13.798Z,3.00
2019-01-29T03:38:42.270Z,3.30
2019-01-29T03:41:10.049Z,3.20
2019-01-29T03:43:38.111Z,3.00
2019-01-29T03:46:05.878Z,3.00
2019-01-29T03:48:33.766Z,3.20
2019-01-29T03:51:02.031Z,3.00
2019-01-29T03:53:38.213Z,3.40
2019-01-29T03:56:04.381Z,3.10
2019-01-29T03:58:35.120Z,3.30
2019-01-29T04:01:03.688Z,3.10
2019-01-29T04:03:31.791Z,2.70
2019-01-29T04:05:59.471Z,2.80
2019-01-29T04:08:27.603Z,2.70
2019-01-29T04:10:56.082Z,2.70
2019-01-29T04:13:24.020Z,2.60
2019-01-29T04:15:52.154Z,2.70
2019-01-29T04:18:20.386Z,2.40
2019-01-29T04:20:50.014Z,2.80
2019-01-29T04:23:17.770Z,2.70
2019-01-29T04:25:45.460Z,2.90
2019-01-29T04:28:14.448Z,2.90
2019-01-29T04:30:42.414Z,2.70
2019-01-29T04:33:10.003Z,2.80
2019-01-29T04:35:37.614Z,3.10
2019-01-29T04:38:05.840Z,2.70
2019-01-29T04:40:33.550Z,2.80
2019-01-29T04:43:01.549Z,2.80
2019-01-29T04:45:29.154Z,2.70
2019-01-29T04:50:44.143Z,2.90
2019-01-29T04:53:11.738Z,2.80
2019-01-29T04:55:39.634Z,2.80
2019-01-29T04:58:07.348Z,2.80
2019-01-29T05:00:34.970Z,3.20
2019-01-29T05:03:02.598Z,2.90
2019-01-29T05:05:30.128Z,2.80
2019-01-29T05:07:57.821Z,2.80
2019-01-29T05:10:25.804Z,2.80
2019-01-29T05:12:53.786Z,2.70
2019-01-29T05:15:22.434Z,2.70
2019-01-29T05:17:49.978Z,2.80
2019-01-29T05:20:19.705Z,2.90
2019-01-29T05:22:48.324Z,2.80
2019-01-29T05:25:16.866Z,2.80
2019-01-29T05:27:44.717Z,3.00
2019-01-29T05:30:16.055Z,2.70
2019-01-29T05:32:44.795Z,2.70
2019-01-29T05:35:12.720Z,2.60
2019-01-29T05:37:40.642Z,2.50
2019-01-29T05:40:10.942Z,2.50
2019-01-29T05:42:38.514Z,2.40
2019-01-29T05:45:07.478Z,2.80
2019-01-29T05:47:35.307Z,2.50
2019-01-29T05:50:04.041Z,2.50
2019-01-29T05:52:31.930Z,2.50
2019-01-29T05:54:59.743Z,2.50
2019-01-29T05:57:27.473Z,2.50
2019-01-29T05:59:55.366Z,2.50
2019-01-29T06:02:23.261Z,2.30
2019-01-29T06:04:50.898Z,2.40
2019-01-29T06:07:18.998Z,2.50
2019-01-29T06:09:49.259Z,2.40
2019-01-29T06:12:16.788Z,2.30
2019-01-29T06:14:44.634Z,2.30
2019-01-29T06:17:12.616Z,2.30
2019-01-29T06:19:40.191Z,2.30
2019-01-29T06:22:08.166Z,2.30
2019-01-29T06:24:36.109Z,2.30
2019-01-29T06:27:03.967Z,2.30
2019-01-29T06:29:31.448Z,2.50
2019-01-29T06:31:59.058Z,2.50
2019-01-29T06:34:26.643Z,2.40
2019-01-29T06:36:54.579Z,2.50
2019-01-29T06:39:23.180Z,2.40
2019-01-29T06:41:52.279Z,2.60
2019-01-29T06:44:20.498Z,2.50
2019-01-29T06:46:48.186Z,2.50
2019-01-29T06:49:16.096Z,2.30
2019-01-29T06:51:43.895Z,2.50
2019-01-29T06:54:11.428Z,2.50
2019-01-29T06:56:39.311Z,2.50
2019-01-29T06:59:07.323Z,2.50
2019-01-29T07:01:35.030Z,2.50
2019-01-29T07:04:02.922Z,2.50
2019-01-29T07:06:30.646Z,2.50
2019-01-29T07:08:58.559Z,2.70
2019-01-29T07:11:26.246Z,2.70
2019-01-29T07:13:54.146Z,2.80
2019-01-29T07:16:38.783Z,2.70
2019-01-29T07:19:22.375Z,2.70
2019-01-29T07:21:50.058Z,2.70
2019-01-29T07:24:18.183Z,2.50
2019-01-29T07:26:45.879Z,2.70
2019-01-29T07:29:13.722Z,3.00
2019-01-29T07:31:42.602Z,2.80
2019-01-29T07:34:10.216Z,2.70
2019-01-29T07:36:38.505Z,2.80
2019-01-29T07:39:09.386Z,2.90
2019-01-29T07:41:37.401Z,3.00
2019-01-29T07:44:06.008Z,2.70
2019-01-29T07:46:34.135Z,2.70
2019-01-29T07:49:02.024Z,2.90
2019-01-29T07:51:29.622Z,2.90
2019-01-29T07:53:57.455Z,2.70
2019-01-29T07:56:25.460Z,2.80
2019-01-29T07:58:53.425Z,2.90
2019-01-29T08:01:21.907Z,2.70
2019-01-29T08:03:49.843Z,2.90
2019-01-29T08:06:17.449Z,2.80
2019-01-29T08:08:45.137Z,2.70
2019-01-29T08:11:23.364Z,3.00
2019-01-29T08:13:51.772Z,2.90
2019-01-29T08:16:19.399Z,2.80
2019-01-29T08:18:47.363Z,2.80
2019-01-29T08:21:15.046Z,3.00
2019-01-29T08:23:42.882Z,3.30
2019-01-29T08:26:10.398Z,3.00
2019-01-29T08:28:38.559Z,3.00
2019-01-29T08:31:06.039Z,3.00
2019-01-29T08:33:34.472Z,3.10
2019-01-29T08:36:02.686Z,3.00
2019-01-29T08:38:30.544Z,2.90
2019-01-29T08:40:58.627Z,3.00
2019-01-29T08:43:26.277Z,3.00
2019-01-29T08:45:54.382Z,3.10
2019-01-29T08:48:22.246Z,3.00
2019-01-29T08:50:50.798Z,3.10
2019-01-29T08:53:18.873Z,2.70
2019-01-29T08:55:48.609Z,3.50
2019-01-29T08:58:16.837Z,3.30
2019-01-29T09:00:44.432Z,3.50
2019-01-29T09:03:12.270Z,3.20
2019-01-29T09:05:41.780Z,3.50
2019-01-29T09:08:09.589Z,3.50
2019-01-29T09:10:37.456Z,3.30
2019-01-29T09:13:05.372Z,3.30
2019-01-29T09:15:33.003Z,3.20
2019-01-29T09:18:01.032Z,3.30
2019-01-29T09:20:28.986Z,3.40
2019-01-29T09:22:56.842Z,3.40
2019-01-29T09:25:24.631Z,3.40
2019-01-29T09:27:54.982Z,3.50
2019-01-29T09:30:22.535Z,3.50
2019-01-29T09:32:50.240Z,3.50
2019-01-29T09:35:18.227Z,3.50
2019-01-29T09:37:48.163Z,3.50
2019-01-29T09:40:17.085Z,3.70
2019-01-29T09:42:45.184Z,3.90
2019-01-29T09:45:15.219Z,3.50
2019-01-29T09:47:49.395Z,3.50
2019-01-29T09:50:19.156Z,3.70
2019-01-29T09:52:46.749Z,3.80
2019-01-29T09:55:15.904Z,3.90
2019-01-29T09:57:43.501Z,4.00
2019-01-29T10:00:17.175Z,3.90
2019-01-29T10:02:45.135Z,3.90
2019-01-29T10:05:13.307Z,4.20
2019-01-29T10:07:41.291Z,4.10
2019-01-29T10:10:09.782Z,4.20
2019-01-29T10:12:37.790Z,4.50
2019-01-29T10:15:06.738Z,4.10
2019-01-29T10:17:34.606Z,4.30
2019-01-29T10:20:04.497Z,4.10
2019-01-29T10:22:32.133Z,4.40
2019-01-29T10:24:59.690Z,4.40
2019-01-29T10:27:27.600Z,4.20
2019-01-29T10:29:55.332Z,4.50
2019-01-29T10:32:23.346Z,4.20
2019-01-29T10:34:51.493Z,4.10
2019-01-29T10:37:19.054Z,4.30
2019-01-29T10:39:47.843Z,4.50
2019-01-29T10:42:15.480Z,4.30
2019-01-29T10:44:43.211Z,4.40
2019-01-29T10:47:11.442Z,4.40
2019-01-29T10:49:39.204Z,4.40
2019-01-29T10:52:09.951Z,4.50
2019-01-29T10:54:37.922Z,4.90
2019-01-29T10:57:06.084Z,4.80
2019-01-29T10:59:33.905Z,4.80
2019-01-29T11:02:01.579Z,4.90
2019-01-29T11:04:29.875Z,5.10
2019-01-29T11:06:57.967Z,5.20
2019-01-29T11:09:25.829Z,5.30
2019-01-29T11:11:53.702Z,5.50
2019-01-29T11:14:21.784Z,5.60
2019-01-29T11:16:53.263Z,5.50
2019-01-29T11:19:22.030Z,5.90
2019-01-29T11:21:50.678Z,5.80
2019-01-29T11:24:21.667Z,6.10
2019-01-29T11:26:55.275Z,6.40
2019-01-29T11:29:25.234Z,6.70
2019-01-29T11:31:54.762Z,6.50
2019-01-29T11:34:25.666Z,6.90
2019-01-29T11:36:53.226Z,7.40
2019-01-29T11:39:21.239Z,7.30
2019-01-29T11:41:48.826Z,7.70
2019-01-29T11:44:16.831Z,7.50
2019-01-29T11:46:48.513Z,7.60
2019-01-29T11:49:16.494Z,7.00
2019-01-29T11:51:44.016Z,6.60
2019-01-29T11:54:12.115Z,6.60
2019-01-29T11:56:40.125Z,8.10
2019-01-29T11:59:08.050Z,9.90
2019-01-29T12:01:35.750Z,9.40
2019-01-29T12:04:03.750Z,9.80
2019-01-29T12:06:31.690Z,10.50
2019-01-29T12:08:59.310Z,10.60
2019-01-29T12:11:28.246Z,11.40
2019-01-29T12:13:55.754Z,10.90
2019-01-29T12:16:23.518Z,9.20
2019-01-29T12:18:51.432Z,8.10
2019-01-29T12:21:19.579Z,7.50
2019-01-29T12:23:47.603Z,7.60
2019-01-29T12:26:15.242Z,8.30
2019-01-29T12:28:42.988Z,9.60
2019-01-29T12:31:11.007Z,11.10
2019-01-29T12:33:38.667Z,11.60
2019-01-29T12:36:06.683Z,11.10
2019-01-29T12:38:35.114Z,11.70
2019-01-29T12:41:02.978Z,12.20
2019-01-29T12:43:30.634Z,12.50
2019-01-29T12:45:58.587Z,12.70
2019-01-29T12:48:26.130Z,12.10
2019-01-29T12:50:58.436Z,11.70
2019-01-29T12:53:30.314Z,11.70
2019-01-29T12:55:58.126Z,10.60
2019-01-29T12:58:25.742Z,9.90
2019-01-29T13:00:57.443Z,9.10
2019-01-29T13:03:25.085Z,8.70
2019-01-29T13:05:53.283Z,8.30
2019-01-29T13:08:21.460Z,8.00
2019-01-29T13:10:49.074Z,7.90
2019-01-29T13:13:17.325Z,7.60
2019-01-29T13:15:45.022Z,7.30
2019-01-29T13:18:13.239Z,7.40
2019-01-29T13:20:40.822Z,7.30
2019-01-29T13:23:08.506Z,7.10
2019-01-29T13:25:36.212Z,7.40
2019-01-29T13:28:04.380Z,8.10
2019-01-29T13:30:33.754Z,8.60
2019-01-29T13:33:01.978Z,9.70
2019-01-29T13:35:33.867Z,10.20
2019-01-29T13:38:01.778Z,10.80
2019-01-29T13:40:29.864Z,11.20
2019-01-29T13:42:57.844Z,11.10
2019-01-29T13:45:25.727Z,11.00
2019-01-29T13:47:53.506Z,10.70
2019-01-29T13:50:25.867Z,10.10
2019-01-29T13:52:53.427Z,9.70
2019-01-29T13:55:21.615Z,9.30
2019-01-29T13:57:49.210Z,8.70
2019-01-29T14:00:28.510Z,8.30
2019-01-29T14:02:56.151Z,7.70
2019-01-29T14:05:24.808Z,7.70
2019-01-29T14:07:52.302Z,7.30
2019-01-29T14:10:19.945Z,7.50
2019-01-29T14:12:47.533Z,7.10
2019-01-29T14:15:21.822Z,6.90
2019-01-29T14:17:49.493Z,6.80
2019-01-29T14:20:17.299Z,6.80
2019-01-29T14:22:44.887Z,7.00
2019-01-29T14:25:12.790Z,6.90
2019-01-29T14:27:40.642Z,6.90
2019-01-29T14:30:12.061Z,6.50
2019-01-29T14:32:39.687Z,6.90
2019-01-29T14:35:10.151Z,6.70
2019-01-29T14:38:18.716Z,6.40
2019-01-29T14:40:46.759Z,6.70
2019-01-29T14:43:15.810Z,6.60
2019-01-29T14:45:43.456Z,6.30
2019-01-29T14:48:11.582Z,6.40
2019-01-29T14:50:39.166Z,6.10
2019-01-29T14:53:06.879Z,6.20
2019-01-29T14:55:35.103Z,6.10
2019-01-29T14:58:02.767Z,6.10
2019-01-29T15:00:30.791Z,5.90
2019-01-29T15:02:58.549Z,6.10
2019-01-29T15:05:26.171Z,6.10
2019-01-29T15:07:54.131Z,6.10
2019-01-29T15:10:21.895Z,5.90
2019-01-29T15:12:49.552Z,6.30
2019-01-29T15:15:17.415Z,6.00
2019-01-29T15:17:51.622Z,6.20
2019-01-29T15:20:19.520Z,5.90
2019-01-29T15:22:47.370Z,6.00
2019-01-29T15:25:14.998Z,6.10
2019-01-29T15:27:42.624Z,6.00
2019-01-29T15:30:16.714Z,5.90
2019-01-29T15:32:44.362Z,5.80
2019-01-29T15:35:12.551Z,5.90
2019-01-29T15:37:40.495Z,5.70
2019-01-29T15:40:10.311Z,5.60
2019-01-29T15:42:37.922Z,5.80
2019-01-29T15:45:09.898Z,5.60
2019-01-29T15:47:37.775Z,5.80
2019-01-29T15:50:06.080Z,5.90
2019-01-29T15:52:33.759Z,5.60
2019-01-29T15:55:01.630Z,5.60
2019-01-29T15:57:29.467Z,5.60
2019-01-29T15:59:57.370Z,5.60
2019-01-29T16:02:24.963Z,5.40
2019-01-29T16:04:52.558Z,5.40
2019-01-29T16:07:20.436Z,5.30
2019-01-29T16:09:47.973Z,5.40
2019-01-29T16:12:16.462Z,5.60
2019-01-29T16:14:44.451Z,5.40
2019-01-29T16:17:12.170Z,5.40
2019-01-29T16:19:40.058Z,5.20
2019-01-29T16:22:07.607Z,5.20
2019-01-29T16:24:35.532Z,5.10
2019-01-29T16:27:06.850Z,5.10
2019-01-29T16:29:32.962Z,4.90
2019-01-29T16:32:00.586Z,5.10
2019-01-29T16:34:28.235Z,4.90
2019-01-29T16:36:56.047Z,4.80
2019-01-29T16:39:23.675Z,4.60
2019-01-29T16:41:51.690Z,4.70
2019-01-29T16:44:19.912Z,4.90
2019-01-29T16:46:47.516Z,4.50
2019-01-29T16:49:15.122Z,4.70
2019-01-29T16:51:43.075Z,4.40
2019-01-29T16:54:10.970Z,4.20
2019-01-29T16:56:38.580Z,4.10
2019-01-29T16:59:06.323Z,4.00
2019-01-29T17:01:33.989Z,4.10
2019-01-29T17:04:01.956Z,4.20
2019-01-29T17:06:29.903Z,4.10
2019-01-29T17:08:57.509Z,4.10
2019-01-29T17:11:25.332Z,4.00
2019-01-29T17:13:53.579Z,4.00
2019-01-29T17:16:21.281Z,3.70
2019-01-29T17:18:48.942Z,3.80
2019-01-29T17:21:16.554Z,3.80
2019-01-29T17:23:44.086Z,3.80
2019-01-29T17:26:11.745Z,3.90
2019-01-29T17:28:39.511Z,3.60
2019-01-29T17:31:07.662Z,3.80
2019-01-29T17:33:35.467Z,3.80
2019-01-29T17:36:03.408Z,3.70
2019-01-29T17:38:31.375Z,3.50
2019-01-29T17:40:59.356Z,3.50
2019-01-29T17:43:27.383Z,3.50
2019-01-29T17:45:55.341Z,3.50
2019-01-29T17:48:23.139Z,3.50
2019-01-29T17:50:50.830Z,3.60
2019-01-29T17:53:19.186Z,3.70
2019-01-29T17:55:46.947Z,3.40
2019-01-29T17:58:14.825Z,3.60
2019-01-29T18:00:46.749Z,3.60
2019-01-29T18:03:14.618Z,3.60
2019-01-29T18:05:42.403Z,3.60
2019-01-29T18:08:10.478Z,3.60
2019-01-29T18:10:38.068Z,3.60
2019-01-29T18:13:05.998Z,3.40
2019-01-29T18:15:33.630Z,3.30
2019-01-29T18:18:01.463Z,3.60
2019-01-29T18:20:29.402Z,3.40
2019-01-29T18:22:57.334Z,3.50
2019-01-29T18:25:25.021Z,3.30
2019-01-29T18:28:00.927Z,3.10
2019-01-29T18:30:25.760Z,3.10
2019-01-29T18:32:53.954Z,3.40
2019-01-29T18:35:21.512Z,3.00
2019-01-29T18:37:49.518Z,3.30
2019-01-29T18:40:20.138Z,3.10
2019-01-29T18:42:51.578Z,3.10
2019-01-29T18:45:19.423Z,3.10
2019-01-29T18:47:47.147Z,3.10
2019-01-29T18:50:17.142Z,3.10
2019-01-29T18:52:44.823Z,2.90
2019-01-29T18:55:12.619Z,2.90
2019-01-29T18:57:40.729Z,3.10
2019-01-29T19:00:15.684Z,2.80
2019-01-29T19:02:43.455Z,3.10
2019-01-29T19:05:13.828Z,2.90
2019-01-29T19:07:41.633Z,3.10
2019-01-29T19:10:11.994Z,3.10
2019-01-29T19:12:40.062Z,2.90
2019-01-29T19:15:10.576Z,3.00
2019-01-29T19:17:38.587Z,3.00
2019-01-29T19:20:06.813Z,2.90
2019-01-29T19:22:34.562Z,3.10
2019-01-29T19:25:03.008Z,2.80
2019-01-29T19:27:30.593Z,3.00
2019-01-29T19:29:58.535Z,3.00
2019-01-29T19:32:26.162Z,3.00
2019-01-29T19:34:53.752Z,2.70
2019-01-29T19:37:21.375Z,2.90
2019-01-29T19:39:49.282Z,2.70
2019-01-29T19:42:27.089Z,3.00
2019-01-29T19:44:46.691Z,2.90
2019-01-29T19:47:14.441Z,3.10
2019-01-29T19:49:42.406Z,2.80
2019-01-29T19:52:10.155Z,3.00
2019-01-29T19:54:37.844Z,2.70
2019-01-29T19:57:05.445Z,2.80
2019-01-29T19:59:33.448Z,2.80
2019-01-29T20:02:01.089Z,2.90
2019-01-29T20:04:29.063Z,3.00
2019-01-29T20:06:56.739Z,3.10
2019-01-29T20:09:24.782Z,3.40
2019-01-29T20:11:52.403Z,3.10
2019-01-29T20:14:20.326Z,3.20
2019-01-29T20:16:48.310Z,3.10
2019-01-29T20:19:15.994Z,3.10
2019-01-29T20:21:43.978Z,3.20
2019-01-29T20:24:12.523Z,3.00
2019-01-29T20:26:40.041Z,3.00
2019-01-29T20:29:07.726Z,3.40
2019-01-29T20:31:35.498Z,3.10
2019-01-29T20:34:03.870Z,3.30
2019-01-29T20:36:31.498Z,3.20
2019-01-29T20:38:59.454Z,3.30
2019-01-29T20:41:27.244Z,3.10
2019-01-29T20:43:54.906Z,3.10
2019-01-29T20:46:22.566Z,3.20
2019-01-29T20:48:50.256Z,3.20
2019-01-29T20:51:17.872Z,3.20
2019-01-29T20:53:45.503Z,3.30
2019-01-29T20:56:13.222Z,2.90
2019-01-29T20:58:41.288Z,3.00
2019-01-29T21:01:08.954Z,3.00
2019-01-29T21:03:37.226Z,2.90
2019-01-29T21:06:05.050Z,3.10
2019-01-29T21:08:32.726Z,3.10
2019-01-29T21:11:00.283Z,3.00
2019-01-29T21:13:27.824Z,3.00
2019-01-29T21:15:55.859Z,3.00
2019-01-29T21:18:23.522Z,2.80
2019-01-29T21:20:57.065Z,2.90
2019-01-29T21:23:21.288Z,3.00
2019-01-29T21:25:49.029Z,3.20
2019-01-29T21:28:16.938Z,2.90
2019-01-29T21:30:44.951Z,2.80
2019-01-29T21:33:12.486Z,3.20
2019-01-29T21:35:40.118Z,2.80
2019-01-29T21:38:08.013Z,3.10
2019-01-29T21:40:35.722Z,3.00
2019-01-29T21:43:03.852Z,2.90
2019-01-29T21:45:31.580Z,3.00
2019-01-29T21:48:00.370Z,3.00
2019-01-29T21:50:29.066Z,3.00
2019-01-29T21:52:56.834Z,2.90
2019-01-29T21:55:25.122Z,2.80
2019-01-29T21:57:53.170Z,3.00
2019-01-29T22:00:24.238Z,2.90
2019-01-29T22:02:52.034Z,2.90
2019-01-29T22:05:20.130Z,2.90
2019-01-29T22:07:47.864Z,2.80
2019-01-29T22:10:16.296Z,2.90
2019-01-29T22:12:44.534Z,2.80
2019-01-29T22:15:12.941Z,2.90
2019-01-29T22:17:40.907Z,3.10
2019-01-29T22:20:11.630Z,2.80
2019-01-29T22:22:39.207Z,2.90
2019-01-29T22:25:09.781Z,2.80
2019-01-29T22:27:37.805Z,2.90
2019-01-29T22:30:10.072Z,3.00
2019-01-29T22:32:37.829Z,2.80
2019-01-29T22:35:07.733Z,2.90
2019-01-29T22:37:35.795Z,3.00
2019-01-29T22:40:05.107Z,2.90
2019-01-29T22:42:33.202Z,3.20
2019-01-29T22:45:01.147Z,3.20
2019-01-29T22:47:28.813Z,3.00
2019-01-29T22:49:56.450Z,2.90
2019-01-29T22:52:24.020Z,2.80
2019-01-29T22:54:51.930Z,2.80
2019-01-29T22:57:19.746Z,2.60
2019-01-29T22:59:47.478Z,2.80
2019-01-29T23:02:15.042Z,2.70
2019-01-29T23:04:45.027Z,2.50
2019-01-29T23:07:28.137Z,2.60
2019-01-29T23:09:56.401Z,2.70
2019-01-29T23:12:24.111Z,2.70
2019-01-29T23:14:51.679Z,2.70
2019-01-29T23:17:19.615Z,2.70
2019-01-29T23:19:47.616Z,2.70
2019-01-29T23:22:15.239Z,2.80
2019-01-29T23:24:43.543Z,2.60
2019-01-29T23:27:11.140Z,2.50
2019-01-29T23:29:43.551Z,2.70
2019-01-29T23:32:08.267Z,2.70
2019-01-29T23:34:36.203Z,2.70
2019-01-29T23:37:04.362Z,2.40
2019-01-29T23:39:32.495Z,2.40
2019-01-29T23:42:01.131Z,2.80
2019-01-29T23:44:29.113Z,2.70
2019-01-29T23:46:57.362Z,2.70
2019-01-29T23:49:24.936Z,2.70
2019-01-29T23:51:52.709Z,2.40
2019-01-29T23:54:20.239Z,2.60
2019-01-29T23:56:47.815Z,2.70
2019-01-29T23:59:16.005Z,2.80
